Time;durP1;ratioP1;P1;durP2;ratioP2;P2;SDS_P1;SDS_P2;PMS_P1;PMS_P2;Temp;Humidity;BMP_temperature;BMP_pressure;BME280_temperature;BME280_humidity;BME280_pressure;Samples;Min_cycle;Max_cycle;Signal;HPM_P1;HPM_P2
2022/09/02 00:00:48;;;;;;;2.00;1.08;;;20.40;73.80;;;;;;4977110;28;20034;-72
2022/09/02 00:03:15;;;;;;;7.88;1.30;;;20.40;73.80;;;;;;4979025;28;20146;-71
2022/09/02 00:05:41;;;;;;;3.58;1.00;;;20.40;73.80;;;;;;4982840;28;20038;-72
2022/09/02 00:08:07;;;;;;;1.30;0.80;;;20.40;73.80;;;;;;4977523;28;20383;-72
2022/09/02 00:10:37;;;;;;;1.83;1.02;;;20.30;73.80;;;;;;4977598;28;20030;-72
2022/09/02 00:13:03;;;;;;;1.20;0.80;;;20.30;73.80;;;;;;4974081;28;20035;-72
2022/09/02 00:15:29;;;;;;;2.63;1.10;;;20.30;73.70;;;;;;4971960;28;20031;-72
2022/09/02 00:17:55;;;;;;;1.00;0.90;;;20.30;74.30;;;;;;4974024;28;20046;-72
2022/09/02 00:20:20;;;;;;;1.10;1.00;;;20.20;73.60;;;;;;4974596;28;20105;-72
2022/09/02 00:22:46;;;;;;;10.93;1.00;;;20.20;74.30;;;;;;4988589;28;20425;-72
2022/09/02 00:25:12;;;;;;;1.73;1.08;;;20.20;73.70;;;;;;4989636;28;20042;-72
2022/09/02 00:27:38;;;;;;;2.42;1.15;;;20.20;73.70;;;;;;4983188;28;20037;-72
2022/09/02 00:30:05;;;;;;;3.05;0.90;;;20.20;73.80;;;;;;4985842;28;20027;-71
2022/09/02 00:32:31;;;;;;;1.55;1.20;;;20.20;73.80;;;;;;4973503;28;20054;-72
2022/09/02 00:34:57;;;;;;;1.25;0.90;;;20.20;73.80;;;;;;4972428;28;20058;-71
2022/09/02 00:37:25;;;;;;;1.65;1.00;;;20.10;73.90;;;;;;4962038;28;20093;-71
2022/09/02 00:39:52;;;;;;;2.72;1.13;;;20.10;73.90;;;;;;4968118;28;20027;-71
2022/09/02 00:42:20;;;;;;;1.35;0.90;;;20.10;73.90;;;;;;4975144;28;20398;-71
2022/09/02 00:44:46;;;;;;;4.50;1.55;;;20.10;74.00;;;;;;4974126;28;20027;-71
2022/09/02 00:47:13;;;;;;;1.15;0.93;;;20.10;74.00;;;;;;4972842;28;20384;-71
2022/09/02 00:49:42;;;;;;;1.27;1.17;;;20.10;74.10;;;;;;4974631;28;20062;-71
2022/09/02 00:52:19;;;;;;;1.15;1.02;;;20.00;74.10;;;;;;4964764;28;20065;-71
2022/09/02 00:54:50;;;;;;;1.58;0.93;;;20.00;74.10;;;;;;4967279;28;20552;-72
2022/09/02 00:57:20;;;;;;;1.25;1.05;;;20.00;74.10;;;;;;4977847;28;20050;-71
2022/09/02 01:00:08;;;;;;;5.22;1.02;;;20.00;74.20;;;;;;4966764;28;20058;-71
2022/09/02 01:02:36;;;;;;;3.97;1.17;;;19.90;74.10;;;;;;4971199;28;20082;-71
2022/09/02 01:05:05;;;;;;;1.33;1.10;;;19.90;74.10;;;;;;4970973;28;20069;-72
2022/09/02 01:07:33;;;;;;;2.60;1.13;;;19.90;74.10;;;;;;4981432;28;20461;-71
2022/09/02 01:10:00;;;;;;;0.82;0.82;;;19.90;74.30;;;;;;4974322;28;20039;-72
2022/09/02 01:12:29;;;;;;;2.33;1.10;;;19.80;74.30;;;;;;4972749;28;20470;-72
2022/09/02 01:14:56;;;;;;;4.03;1.10;;;19.80;74.30;;;;;;4972628;28;20034;-71
2022/09/02 01:17:25;;;;;;;2.50;1.20;;;19.80;74.40;;;;;;4961020;28;20564;-71
2022/09/02 01:19:55;;;;;;;3.08;0.90;;;19.80;74.40;;;;;;4957195;28;20026;-71
2022/09/02 01:22:28;;;;;;;1.90;0.90;;;19.80;74.40;;;;;;4965529;28;20038;-71
2022/09/02 01:24:59;;;;;;;1.17;1.02;;;19.80;74.40;;;;;;4971937;28;20026;-72
2022/09/02 01:27:26;;;;;;;4.68;1.10;;;19.80;74.40;;;;;;4972327;28;20478;-71
2022/09/02 01:30:00;;;;;;;2.58;1.13;;;19.80;74.30;;;;;;4972312;28;20030;-71
2022/09/02 01:32:30;;;;;;;3.10;1.13;;;19.70;74.20;;;;;;4968905;28;20058;-71
2022/09/02 01:34:56;;;;;;;3.58;1.10;;;19.70;74.20;;;;;;4987149;28;20038;-71
2022/09/02 01:37:22;;;;;;;1.58;1.10;;;19.70;74.10;;;;;;4971319;28;20047;-71
2022/09/02 01:39:51;;;;;;;2.88;1.08;;;19.70;74.10;;;;;;4973601;28;20026;-71
2022/09/02 01:42:17;;;;;;;1.77;1.08;;;19.60;74.10;;;;;;4955968;28;20382;-71
2022/09/02 01:44:43;;;;;;;3.08;0.80;;;19.60;74.00;;;;;;4983146;28;20058;-71
2022/09/02 01:47:11;;;;;;;1.88;1.20;;;19.60;73.90;;;;;;4965837;28;20088;-71
2022/09/02 01:49:36;;;;;;;12.23;1.40;;;19.60;73.90;;;;;;4988908;28;20033;-71
2022/09/02 01:52:03;;;;;;;1.58;1.00;;;19.60;73.90;;;;;;4987687;28;20030;-71
2022/09/02 01:54:29;;;;;;;1.48;1.00;;;19.50;73.80;;;;;;4960576;28;20114;-71
2022/09/02 01:56:55;;;;;;;1.60;1.10;;;19.50;73.80;;;;;;4970421;28;20125;-72
2022/09/02 01:59:22;;;;;;;5.35;0.98;;;19.50;73.80;;;;;;4969127;28;20030;-71
2022/09/02 02:01:48;;;;;;;3.60;1.23;;;19.50;73.80;;;;;;4984401;28;20481;-71
2022/09/02 02:04:14;;;;;;;1.55;1.13;;;19.40;73.80;;;;;;4967408;28;20391;-71
2022/09/02 02:06:44;;;;;;;3.97;1.20;;;19.40;73.70;;;;;;4972846;28;20401;-71
2022/09/02 02:09:11;;;;;;;1.38;1.15;;;19.40;73.70;;;;;;4981270;28;20081;-71
2022/09/02 02:11:37;;;;;;;2.35;1.20;;;19.40;73.70;;;;;;4965689;28;20121;-71
2022/09/02 02:14:04;;;;;;;2.28;1.20;;;19.40;73.80;;;;;;4977952;28;20105;-71
2022/09/02 02:16:30;;;;;;;2.35;1.23;;;19.30;73.80;;;;;;4951441;28;20061;-71
2022/09/02 02:18:57;;;;;;;3.17;1.05;;;19.30;73.80;;;;;;4977552;28;20278;-71
2022/09/02 02:21:22;;;;;;;1.88;1.25;;;19.30;73.90;;;;;;4980798;28;20094;-71
2022/09/02 02:23:49;;;;;;;1.10;1.00;;;19.30;73.80;;;;;;4961617;28;20131;-71
2022/09/02 02:26:15;;;;;;;3.03;1.00;;;19.30;74.00;;;;;;4987418;28;20085;-71
2022/09/02 02:28:41;;;;;;;2.67;1.38;;;19.20;73.90;;;;;;4986887;28;20084;-71
2022/09/02 02:31:08;;;;;;;2.13;1.08;;;19.20;74.00;;;;;;4974984;28;20034;-71
2022/09/02 02:33:34;;;;;;;1.95;1.20;;;19.20;74.00;;;;;;4975195;28;20041;-72
2022/09/02 02:36:03;;;;;;;2.30;1.40;;;19.20;74.10;;;;;;4968960;28;20378;-71
2022/09/02 02:38:30;;;;;;;3.28;1.30;;;19.20;74.10;;;;;;4954919;28;20042;-71
2022/09/02 02:40:56;;;;;;;5.78;1.27;;;19.20;74.10;;;;;;4973863;28;20027;-71
2022/09/02 02:43:25;;;;;;;2.38;1.00;;;19.20;74.10;;;;;;4975263;28;20030;-71
2022/09/02 02:45:52;;;;;;;2.00;1.40;;;19.20;74.20;;;;;;4975690;28;20030;-71
2022/09/02 02:48:20;;;;;;;2.22;1.27;;;19.10;74.20;;;;;;4976215;28;20052;-71
2022/09/02 02:50:46;;;;;;;1.17;1.00;;;19.10;74.20;;;;;;4984619;28;20366;-71
2022/09/02 02:53:12;;;;;;;6.68;1.35;;;19.10;74.20;;;;;;4975563;28;20031;-71
2022/09/02 02:55:38;;;;;;;1.67;1.13;;;19.10;74.30;;;;;;4968572;28;20492;-71
2022/09/02 02:58:05;;;;;;;6.63;1.27;;;19.00;74.30;;;;;;4987889;28;20501;-71
2022/09/02 03:00:32;;;;;;;1.25;1.15;;;19.00;74.40;;;;;;4958305;28;20149;-71
2022/09/02 03:03:03;;;;;;;3.42;1.17;;;19.00;74.40;;;;;;4977292;28;20429;-71
2022/09/02 03:05:29;;;;;;;6.68;1.20;;;18.90;74.40;;;;;;4976241;28;20043;-71
2022/09/02 03:07:57;;;;;;;5.75;1.30;;;18.90;74.40;;;;;;4958346;28;20437;-71
2022/09/02 03:10:23;;;;;;;2.78;1.10;;;18.90;74.50;;;;;;4960570;28;20027;-71
2022/09/02 03:12:49;;;;;;;1.85;1.20;;;18.90;74.60;;;;;;4973218;28;20078;-71
2022/09/02 03:15:19;;;;;;;1.85;1.48;;;18.90;74.60;;;;;;4966653;28;20504;-71
2022/09/02 03:17:47;;;;;;;2.50;1.35;;;18.90;74.70;;;;;;4958005;28;20410;-71
2022/09/02 03:20:14;;;;;;;1.40;0.90;;;18.80;74.70;;;;;;4961578;28;20490;-71
2022/09/02 03:22:43;;;;;;;3.00;1.38;;;18.80;74.80;;;;;;4955156;28;20041;-71
2022/09/02 03:25:11;;;;;;;7.75;1.40;;;18.80;75.50;;;;;;4963443;28;20061;-71
2022/09/02 03:27:39;;;;;;;2.97;1.38;;;18.80;75.00;;;;;;4968147;28;20117;-71
2022/09/02 03:30:08;;;;;;;3.03;1.13;;;18.80;75.10;;;;;;4950933;28;20031;-71
2022/09/02 03:32:35;;;;;;;2.55;1.40;;;18.80;75.10;;;;;;4960754;28;20437;-71
2022/09/02 03:35:06;;;;;;;1.63;1.25;;;18.70;75.10;;;;;;4964584;28;20026;-71
2022/09/02 03:37:34;;;;;;;1.48;1.33;;;18.70;75.20;;;;;;4957206;28;20035;-70
2022/09/02 03:40:02;;;;;;;9.45;1.17;;;18.70;75.20;;;;;;4959852;28;20031;-71
2022/09/02 03:42:30;;;;;;;2.33;1.25;;;18.70;75.30;;;;;;4954098;28;20543;-71
2022/09/02 03:44:55;;;;;;;2.05;1.40;;;18.70;75.40;;;;;;4976005;28;20039;-71
2022/09/02 03:47:22;;;;;;;7.80;1.38;;;18.70;75.40;;;;;;4975197;28;20072;-71
2022/09/02 03:49:48;;;;;;;4.72;1.50;;;18.70;75.50;;;;;;4964009;28;20023;-71
2022/09/02 03:52:13;;;;;;;3.17;1.33;;;18.60;75.50;;;;;;4960642;28;20118;-71
2022/09/02 03:54:40;;;;;;;4.65;1.48;;;18.70;75.60;;;;;;4951388;28;20023;-71
2022/09/02 03:57:06;;;;;;;3.45;1.55;;;18.60;75.70;;;;;;4970514;28;20065;-71
2022/09/02 03:59:32;;;;;;;3.10;1.50;;;18.60;75.70;;;;;;4978361;28;20411;-71
2022/09/02 04:01:59;;;;;;;2.72;1.50;;;18.50;75.70;;;;;;4966264;28;20031;-71
2022/09/02 04:04:25;;;;;;;5.80;1.55;;;18.50;75.80;;;;;;4961356;28;20079;-71
2022/09/02 04:06:51;;;;;;;2.78;1.50;;;18.50;75.80;;;;;;4967119;28;20034;-71
2022/09/02 04:09:17;;;;;;;2.20;1.40;;;18.50;75.90;;;;;;4959402;28;20030;-71
2022/09/02 04:11:42;;;;;;;3.97;1.42;;;18.50;76.00;;;;;;4975424;28;20030;-71
2022/09/02 04:14:10;;;;;;;1.90;1.40;;;18.50;76.00;;;;;;4957441;28;20035;-71
2022/09/02 04:16:36;;;;;;;3.53;1.60;;;18.40;76.70;;;;;;4973565;28;20058;-71
2022/09/02 04:19:08;;;;;;;2.25;1.58;;;18.40;76.10;;;;;;4961181;28;20478;-71
2022/09/02 04:21:38;;;;;;;3.47;1.45;;;18.40;76.20;;;;;;4950838;28;20456;-72
2022/09/02 04:24:08;;;;;;;2.63;1.35;;;18.40;76.30;;;;;;4943631;28;20356;-71
2022/09/02 04:26:36;;;;;;;2.80;1.58;;;18.40;76.30;;;;;;4956423;28;20058;-71
2022/09/02 04:29:08;;;;;;;1.83;1.52;;;18.40;76.40;;;;;;4956845;28;20041;-71
2022/09/02 04:31:34;;;;;;;1.60;1.38;;;18.30;76.40;;;;;;4948600;28;20166;-71
2022/09/02 04:34:02;;;;;;;1.95;1.40;;;18.30;76.50;;;;;;4963903;28;20026;-71
2022/09/02 04:36:28;;;;;;;2.85;1.60;;;18.30;76.50;;;;;;4962573;28;20086;-71
2022/09/02 04:38:56;;;;;;;2.88;1.30;;;18.30;76.60;;;;;;4957262;28;20031;-71
2022/09/02 04:41:27;;;;;;;6.18;1.48;;;18.30;76.60;;;;;;4955970;28;20085;-71
2022/09/02 04:43:58;;;;;;;6.65;1.20;;;18.20;76.70;;;;;;4956761;28;20113;-70
2022/09/02 04:46:27;;;;;;;8.80;1.40;;;18.20;76.80;;;;;;4948433;28;20061;-71
2022/09/02 04:48:55;;;;;;;3.33;1.25;;;18.20;76.80;;;;;;4959818;28;20031;-71
2022/09/02 04:51:23;;;;;;;3.20;1.50;;;18.20;76.80;;;;;;4958681;28;20292;-71
2022/09/02 04:53:52;;;;;;;2.63;1.10;;;18.20;76.90;;;;;;4968868;28;20019;-70
2022/09/02 04:56:21;;;;;;;5.15;1.35;;;18.20;77.10;;;;;;4978398;28;20106;-71
2022/09/02 04:58:49;;;;;;;1.42;1.15;;;18.20;77.10;;;;;;4957218;28;20466;-70
2022/09/02 05:01:22;;;;;;;3.25;1.25;;;18.10;77.00;;;;;;4977564;28;20109;-70
2022/09/02 05:03:48;;;;;;;5.70;1.55;;;18.10;77.10;;;;;;4950242;28;20046;-70
2022/09/02 05:06:17;;;;;;;5.20;1.20;;;18.10;77.20;;;;;;4967797;28;20120;-71
2022/09/02 05:08:46;;;;;;;2.35;1.40;;;18.10;77.30;;;;;;4971425;28;20026;-71
2022/09/02 05:11:18;;;;;;;3.55;1.48;;;18.10;77.30;;;;;;4975348;28;20061;-70
2022/09/02 05:13:50;;;;;;;2.10;1.38;;;18.10;77.40;;;;;;4954807;28;20030;-71
2022/09/02 05:16:21;;;;;;;2.67;1.27;;;18.10;77.50;;;;;;4955129;28;20042;-70
2022/09/02 05:18:49;;;;;;;1.80;1.27;;;18.00;77.50;;;;;;4973799;28;20019;-69
2022/09/02 05:21:15;;;;;;;3.88;1.52;;;18.10;77.60;;;;;;4973042;28;20030;-70
2022/09/02 05:23:44;;;;;;;1.83;1.50;;;18.10;77.70;;;;;;4962862;28;20030;-69
2022/09/02 05:26:11;;;;;;;3.17;1.17;;;18.00;77.70;;;;;;4959147;28;20034;-70
2022/09/02 05:28:39;;;;;;;2.60;1.50;;;18.00;77.80;;;;;;4977958;28;20698;-70
2022/09/02 05:31:09;;;;;;;3.90;1.60;;;18.00;77.90;;;;;;4957639;28;20030;-69
2022/09/02 05:33:39;;;;;;;2.20;1.50;;;18.00;78.10;;;;;;4965543;28;20486;-69
2022/09/02 05:36:08;;;;;;;4.50;1.55;;;18.00;78.20;;;;;;4959601;28;20026;-69
2022/09/02 05:38:34;;;;;;;1.50;1.40;;;18.00;78.30;;;;;;4977810;28;20441;-66
2022/09/02 05:41:06;;;;;;;3.83;1.80;;;18.00;78.40;;;;;;4959804;28;20019;-70
2022/09/02 05:43:40;;;;;;;2.38;1.52;;;18.00;78.60;;;;;;4956108;28;20046;-70
2022/09/02 05:46:07;;;;;;;3.22;1.63;;;18.00;78.70;;;;;;4972838;28;20019;-70
2022/09/02 05:51:21;;;;;;;6.40;1.40;;;18.00;78.90;;;;;;4943020;29;20038;-74
2022/09/02 05:53:52;;;;;;;2.47;1.48;;;17.90;79.30;;;;;;4961608;28;20398;-75
2022/09/02 05:56:19;;;;;;;3.40;1.60;;;18.00;79.70;;;;;;4960455;28;20173;-73
2022/09/02 05:58:45;;;;;;;3.28;1.52;;;18.00;80.00;;;;;;4965929;28;20034;-73
2022/09/02 06:01:13;;;;;;;3.30;1.60;;;18.00;80.40;;;;;;4972995;28;20050;-72
2022/09/02 06:03:39;;;;;;;4.93;1.50;;;18.00;80.60;;;;;;4978120;28;20150;-73
2022/09/02 06:06:06;;;;;;;3.05;1.38;;;18.00;80.80;;;;;;4970126;28;20061;-73
2022/09/02 06:08:35;;;;;;;2.50;1.50;;;18.00;81.00;;;;;;4956594;28;20035;-73
2022/09/02 06:11:03;;;;;;;6.07;1.40;;;18.00;81.00;;;;;;4983719;28;20393;-73
2022/09/02 06:13:34;;;;;;;9.73;1.60;;;18.00;81.00;;;;;;4984141;28;20026;-72
2022/09/02 06:16:02;;;;;;;2.13;1.30;;;18.00;81.30;;;;;;4967081;28;20026;-73
2022/09/02 06:18:30;;;;;;;2.20;1.50;;;18.10;81.40;;;;;;4974217;28;20030;-72
2022/09/02 06:20:56;;;;;;;3.90;1.27;;;18.10;81.40;;;;;;4956331;28;20038;-73
2022/09/02 06:23:26;;;;;;;2.15;1.30;;;18.10;81.50;;;;;;4959846;28;20474;-73
2022/09/02 06:25:52;;;;;;;5.22;1.20;;;18.10;81.40;;;;;;4975143;28;20034;-73
2022/09/02 06:28:18;;;;;;;5.00;1.58;;;18.10;81.30;;;;;;4971525;28;20065;-73
2022/09/02 06:30:49;;;;;;;8.43;2.20;;;18.10;81.20;;;;;;4976653;28;20058;-75
2022/09/02 06:33:19;;;;;;;3.38;1.50;;;18.20;81.30;;;;;;4940345;28;20031;-74
2022/09/02 06:35:46;;;;;;;4.70;1.65;;;18.20;81.20;;;;;;4957019;28;20047;-75
2022/09/02 06:38:15;;;;;;;2.53;1.58;;;18.20;81.20;;;;;;4961114;28;20039;-73
2022/09/02 06:40:53;;;;;;;3.13;1.70;;;18.20;81.40;;;;;;4958405;28;20027;-75
2022/09/02 06:43:27;;;;;;;1.92;1.42;;;18.20;81.40;;;;;;4955269;28;20142;-75
2022/09/02 06:46:14;;;;;;;3.85;1.20;;;18.30;81.50;;;;;;4959886;28;20105;-75
2022/09/02 06:48:40;;;;;;;2.13;1.40;;;18.30;81.40;;;;;;4977596;28;20122;-75
2022/09/02 06:51:06;;;;;;;3.30;1.40;;;18.30;81.30;;;;;;4956915;28;20240;-74
2022/09/02 06:53:33;;;;;;;8.07;1.30;;;18.40;81.30;;;;;;4972142;28;20125;-74
2022/09/02 06:55:58;;;;;;;6.32;1.50;;;18.30;81.30;;;;;;4963658;28;20113;-74
2022/09/02 06:58:24;;;;;;;5.40;1.60;;;18.40;81.30;;;;;;4975494;28;20039;-75
2022/09/02 07:00:50;;;;;;;3.70;1.30;;;18.40;81.50;;;;;;4965171;28;20026;-76
2022/09/02 07:06:20;;;;;;;1.30;1.20;;;18.40;81.70;;;;;;4962629;28;20027;-74
2022/09/02 07:08:48;;;;;;;1.45;1.25;;;18.50;81.80;;;;;;4972968;28;20162;-74
2022/09/02 07:11:20;;;;;;;2.05;1.80;;;18.50;81.70;;;;;;4961092;28;20114;-75
2022/09/02 07:13:47;;;;;;;;;;;18.50;81.70;;;;;;4953985;28;20042;-75
2022/09/02 07:16:16;;;;;;;6.28;1.35;;;18.50;81.30;;;;;;4967188;28;19960;-75
2022/09/02 07:18:42;;;;;;;4.22;1.50;;;18.50;81.40;;;;;;4947340;28;20035;-75
2022/09/02 07:21:10;;;;;;;2.25;1.50;;;18.50;81.60;;;;;;4958071;28;20034;-75
2022/09/02 07:23:38;;;;;;;2.65;1.30;;;18.50;81.70;;;;;;4957331;28;20045;-75
2022/09/02 07:26:12;;;;;;;8.15;1.30;;;18.60;81.60;;;;;;4957566;28;20022;-76
2022/09/02 07:28:39;;;;;;;3.20;1.50;;;18.60;81.40;;;;;;4970234;28;20050;-74
2022/09/02 07:31:13;;;;;;;10.68;1.10;;;18.60;81.40;;;;;;4966602;28;20030;-75
2022/09/02 07:33:39;;;;;;;2.58;1.20;;;18.70;81.50;;;;;;4962353;28;20030;-74
2022/09/02 07:36:13;;;;;;;2.50;1.27;;;18.70;81.50;;;;;;4967977;28;20027;-75
2022/09/02 07:38:41;;;;;;;1.95;1.30;;;18.70;81.40;;;;;;4967855;28;20031;-74
2022/09/02 07:41:09;;;;;;;2.63;1.30;;;18.70;81.40;;;;;;4973635;28;20037;-75
2022/09/02 07:43:40;;;;;;;2.45;1.50;;;18.80;81.40;;;;;;4957133;28;20054;-75
2022/09/02 07:46:06;;;;;;;1.58;1.30;;;18.80;81.30;;;;;;4969259;28;20026;-76
2022/09/02 07:48:33;;;;;;;4.90;1.40;;;18.90;81.30;;;;;;4949589;28;20028;-75
2022/09/02 07:51:03;;;;;;;2.25;1.20;;;18.90;81.20;;;;;;4966748;28;20031;-75
2022/09/02 07:53:31;;;;;;;5.53;1.52;;;18.90;81.10;;;;;;4971957;28;20117;-75
2022/09/02 07:55:58;;;;;;;3.70;1.30;;;18.90;81.00;;;;;;4958322;28;20121;-75
2022/09/02 07:58:25;;;;;;;3.03;1.40;;;19.00;81.00;;;;;;4968480;28;20030;-74
2022/09/02 08:00:51;;;;;;;4.65;1.33;;;19.00;80.80;;;;;;4963338;28;20045;-75
2022/09/02 08:03:18;;;;;;;4.25;1.55;;;19.10;80.60;;;;;;4969849;28;20445;-74
2022/09/02 08:05:51;;;;;;;3.50;1.35;;;19.10;80.60;;;;;;4959167;28;20046;-73
2022/09/02 08:08:21;;;;;;;5.55;1.83;;;19.20;80.70;;;;;;4972075;28;20069;-75
2022/09/02 08:10:49;;;;;;;4.45;1.80;;;19.20;80.80;;;;;;4979094;28;20045;-75
2022/09/02 08:13:15;;;;;;;5.32;1.38;;;19.20;80.70;;;;;;4976695;28;20038;-75
2022/09/02 08:15:41;;;;;;;3.35;1.30;;;19.20;80.60;;;;;;4977738;28;20093;-76
2022/09/02 08:18:07;;;;;;;1.60;1.17;;;19.30;80.50;;;;;;4974498;28;20046;-73
2022/09/02 08:20:36;;;;;;;8.70;1.55;;;19.30;80.50;;;;;;4978686;28;20026;-72
2022/09/02 08:23:06;;;;;;;3.42;1.40;;;19.30;80.50;;;;;;4970818;28;20093;-77
2022/09/02 08:25:35;;;;;;;10.25;1.73;;;19.40;80.60;;;;;;4982833;28;20034;-72
2022/09/02 08:28:02;;;;;;;1.55;1.13;;;19.40;80.30;;;;;;4978310;28;20027;-75
2022/09/02 08:30:27;;;;;;;3.17;1.40;;;19.40;80.10;;;;;;4982897;28;20074;-73
2022/09/02 08:32:53;;;;;;;6.28;1.48;;;19.50;80.30;;;;;;4973038;28;20058;-73
2022/09/02 08:35:19;;;;;;;6.30;1.40;;;19.50;80.30;;;;;;4975710;28;20038;-74
2022/09/02 08:37:45;;;;;;;2.40;1.02;;;19.50;80.20;;;;;;4975701;28;20054;-74
2022/09/02 08:40:20;;;;;;;2.70;1.48;;;19.60;80.30;;;;;;4977605;28;20130;-74
2022/09/02 08:42:49;;;;;;;7.38;2.67;;;19.60;80.10;;;;;;4976092;28;20049;-74
2022/09/02 08:45:27;;;;;;;3.42;1.25;;;19.70;80.10;;;;;;4982649;28;20030;-74
2022/09/02 08:48:01;;;;;;;1.52;0.93;;;19.70;80.10;;;;;;4976816;28;20041;-74
2022/09/02 08:50:28;;;;;;;2.25;1.30;;;19.80;80.10;;;;;;4971594;28;20019;-73
2022/09/02 08:53:02;;;;;;;5.20;1.40;;;19.80;79.80;;;;;;4970938;28;20031;-73
2022/09/02 08:55:50;;;;;;;3.47;1.42;;;19.80;80.00;;;;;;4975560;28;20033;-69
2022/09/02 08:58:19;;;;;;;2.78;1.30;;;19.90;79.90;;;;;;4972522;28;20054;-71
2022/09/02 09:01:09;;;;;;;6.05;1.48;;;19.90;79.80;;;;;;4973970;28;20022;-75
2022/09/02 09:04:13;;;;;;;7.18;1.70;;;20.00;80.40;;;;;;4957517;28;20051;-74
2022/09/02 09:07:12;;;;;;;3.58;1.73;;;20.00;79.70;;;;;;4942216;28;20038;-74
2022/09/02 09:09:59;;;;;;;1.55;1.30;;;20.10;79.80;;;;;;4974796;28;20038;-74
2022/09/02 09:12:52;;;;;;;10.27;1.67;;;20.10;79.70;;;;;;4975645;28;20444;-74
2022/09/02 09:15:17;;;;;;;4.70;1.50;;;20.20;79.80;;;;;;4966838;28;20034;-74
2022/09/02 09:17:55;;;;;;;3.50;1.38;;;20.20;79.80;;;;;;4972040;28;20038;-74
2022/09/02 09:20:26;;;;;;;4.20;1.60;;;20.20;79.80;;;;;;4975654;28;20474;-75
2022/09/02 09:22:55;;;;;;;4.75;1.55;;;20.30;79.60;;;;;;4978271;28;20053;-74
2022/09/02 09:25:28;;;;;;;5.63;1.98;;;20.30;79.60;;;;;;4978764;28;20054;-74
2022/09/02 09:28:00;;;;;;;2.08;1.27;;;20.40;79.30;;;;;;4974165;28;20022;-75
2022/09/02 09:30:27;;;;;;;6.25;1.77;;;20.40;79.30;;;;;;4980059;28;20042;-74
2022/09/02 09:32:56;;;;;;;6.93;1.45;;;20.60;79.00;;;;;;4972064;28;20027;-73
2022/09/02 09:35:26;;;;;;;2.03;1.40;;;20.60;79.00;;;;;;4975943;28;20056;-73
2022/09/02 09:37:54;;;;;;;4.80;1.35;;;20.70;78.80;;;;;;4977570;28;20054;-74
2022/09/02 09:40:20;;;;;;;4.13;1.60;;;20.70;78.80;;;;;;4977165;28;20113;-74
2022/09/02 09:42:53;;;;;;;8.32;1.70;;;20.80;78.60;;;;;;4975808;28;20167;-74
2022/09/02 09:45:25;;;;;;;5.25;1.45;;;20.80;78.60;;;;;;4975029;28;20031;-74
2022/09/02 09:48:21;;;;;;;8.82;2.00;;;20.80;78.60;;;;;;4968727;28;20035;-71
2022/09/02 09:51:08;;;;;;;3.22;2.15;;;20.90;77.80;;;;;;4969637;28;20035;-70
2022/09/02 09:53:36;;;;;;;6.70;2.15;;;20.90;77.00;;;;;;4976552;28;20123;-70
2022/09/02 09:56:14;;;;;;;2.63;1.65;;;21.00;76.70;;;;;;4975653;28;20115;-71
2022/09/02 09:58:40;;;;;;;4.65;1.70;;;21.10;76.60;;;;;;4968365;28;20098;-71
2022/09/02 10:01:19;;;;;;;5.70;1.85;;;21.10;76.30;;;;;;4972206;28;20034;-70
2022/09/02 10:03:51;;;;;;;5.32;1.60;;;21.10;76.30;;;;;;4972190;28;20078;-70
2022/09/02 10:06:22;;;;;;;3.90;2.35;;;21.20;76.10;;;;;;4972275;28;20093;-71
2022/09/02 10:09:17;;;;;;;2.65;1.42;;;21.30;75.70;;;;;;4970258;28;20037;-71
2022/09/02 10:12:12;;;;;;;4.03;1.85;;;21.40;75.70;;;;;;4939959;28;20051;-71
2022/09/02 10:14:48;;;;;;;3.92;1.48;;;21.40;75.10;;;;;;4968211;28;20170;-71
2022/09/02 10:17:48;;;;;;;5.65;2.00;;;21.40;75.00;;;;;;4963716;28;20137;-70
2022/09/02 10:20:51;;;;;;;3.13;1.60;;;21.50;75.30;;;;;;4932626;28;20042;-74
2022/09/02 10:23:33;;;;;;;1.20;0.95;;;21.50;75.60;;;;;;4972526;28;20046;-73
2022/09/02 10:26:05;;;;;;;4.57;1.50;;;21.60;76.50;;;;;;4973246;28;20053;-73
2022/09/02 10:29:17;;;;;;;2.97;1.52;;;21.60;75.80;;;;;;4971363;28;20026;-74
2022/09/02 10:32:05;;;;;;;4.22;1.70;;;21.70;75.50;;;;;;4972947;28;20033;-73
2022/09/02 10:35:15;;;;;;;3.38;1.80;;;21.70;76.30;;;;;;4978332;28;20074;-72
2022/09/02 10:37:56;;;;;;;1.05;0.93;;;21.70;75.80;;;;;;4988079;28;20505;-73
2022/09/02 10:40:33;;;;;;;4.07;1.77;;;21.80;76.40;;;;;;4975723;28;20030;-72
2022/09/02 10:43:04;;;;;;;2.30;1.30;;;21.80;75.50;;;;;;4976055;28;20031;-72
2022/09/02 10:45:35;;;;;;;5.25;1.50;;;21.80;75.30;;;;;;4976488;28;20490;-73
2022/09/02 10:48:03;;;;;;;3.05;1.48;;;21.90;74.70;;;;;;4975528;28;20027;-73
2022/09/02 10:50:41;;;;;;;6.38;2.08;;;21.90;74.90;;;;;;4972540;28;20038;-73
2022/09/02 10:53:19;;;;;;;3.30;1.60;;;22.00;75.30;;;;;;4976140;28;20041;-72
2022/09/02 10:55:56;;;;;;;5.95;1.70;;;22.00;74.20;;;;;;4974048;28;20116;-74
2022/09/02 10:58:54;;;;;;;2.35;1.20;;;22.10;75.00;;;;;;4976574;28;20051;-73
2022/09/02 11:01:27;;;;;;;5.60;1.23;;;22.10;75.20;;;;;;4980968;28;20634;-73
2022/09/02 11:04:00;;;;;;;1.58;0.82;;;22.10;75.10;;;;;;4975536;28;20142;-71
2022/09/02 11:06:31;;;;;;;2.77;1.33;;;22.10;75.80;;;;;;4974748;28;20027;-72
2022/09/02 11:08:59;;;;;;;7.25;1.55;;;22.20;75.10;;;;;;4978557;28;20027;-72
2022/09/02 11:11:51;;;;;;;1.38;0.88;;;22.20;74.90;;;;;;4977398;28;20030;-74
2022/09/02 11:14:33;;;;;;;5.25;1.83;;;22.20;75.40;;;;;;4973397;28;20035;-73
2022/09/02 11:17:09;;;;;;;4.50;1.30;;;22.30;74.30;;;;;;4977271;28;20045;-72
2022/09/02 11:20:11;;;;;;;3.92;1.52;;;22.30;74.80;;;;;;4973922;28;20393;-73
2022/09/02 11:23:00;;;;;;;2.65;1.40;;;22.40;74.00;;;;;;4975844;28;20055;-73
2022/09/02 11:25:43;;;;;;;1.98;1.40;;;22.40;73.00;;;;;;4976056;28;20038;-73
2022/09/02 11:28:31;;;;;;;5.90;1.70;;;22.40;72.90;;;;;;4975738;28;20035;-73
2022/09/02 11:31:20;;;;;;;3.60;1.38;;;22.50;73.30;;;;;;4972449;28;20074;-73
2022/09/02 11:33:46;;;;;;;3.53;1.30;;;22.50;73.90;;;;;;4979049;28;20027;-72
2022/09/02 11:36:11;;;;;;;2.00;1.10;;;22.60;74.10;;;;;;4977197;28;20035;-73
2022/09/02 11:38:48;;;;;;;0.40;0.40;;;22.60;74.30;;;;;;4973387;28;20042;-74
2022/09/02 11:41:39;;;;;;;6.22;1.23;;;22.60;75.50;;;;;;4962376;28;20039;-74
2022/09/02 11:44:39;;;;;;;1.55;1.17;;;22.70;74.10;;;;;;4979756;28;20084;-74
2022/09/02 11:47:30;;;;;;;3.50;2.30;;;22.70;74.10;;;;;;4918201;28;20039;-74
2022/09/02 11:50:14;;;;;;;4.38;1.30;;;22.70;74.10;;;;;;4981621;28;20041;-75
2022/09/02 11:52:46;;;;;;;3.58;1.05;;;22.80;73.60;;;;;;4966121;28;20462;-79
2022/09/02 11:55:27;;;;;;;3.03;1.27;;;22.80;72.90;;;;;;4973803;28;20518;-74
2022/09/02 11:57:56;;;;;;;2.95;1.15;;;22.80;72.20;;;;;;4974652;28;20043;-74
2022/09/02 12:00:30;;;;;;;1.27;1.17;;;22.80;71.70;;;;;;4973376;28;20031;-74
2022/09/02 12:03:04;;;;;;;5.47;1.63;;;22.90;72.40;;;;;;4985489;28;20118;-75
2022/09/02 12:05:33;;;;;;;5.78;1.40;;;23.00;73.10;;;;;;4974176;28;20061;-75
2022/09/02 12:08:35;;;;;;;9.13;1.40;;;23.00;72.90;;;;;;4985158;28;20429;-75
2022/09/02 12:11:05;;;;;;;2.92;1.67;;;23.10;72.30;;;;;;4966030;28;20545;-73
2022/09/02 12:13:40;;;;;;;9.75;1.58;;;23.10;71.60;;;;;;4977158;28;20096;-74
2022/09/02 12:16:11;;;;;;;1.50;0.90;;;23.10;71.50;;;;;;4980440;28;20116;-75
2022/09/02 12:18:41;;;;;;;3.13;1.30;;;23.20;70.80;;;;;;4978792;28;20098;-76
2022/09/02 12:21:13;;;;;;;5.72;0.85;;;23.20;70.20;;;;;;4969479;28;20034;-75
2022/09/02 12:23:48;;;;;;;8.20;1.20;;;23.30;69.90;;;;;;4985277;28;20027;-75
2022/09/02 12:26:19;;;;;;;3.53;0.98;;;23.40;69.60;;;;;;4982140;28;20043;-76
2022/09/02 12:28:46;;;;;;;1.77;1.02;;;23.40;69.50;;;;;;4975274;28;20023;-75
2022/09/02 12:31:17;;;;;;;5.53;1.00;;;23.40;69.10;;;;;;4974726;28;20485;-75
2022/09/02 12:33:50;;;;;;;1.20;1.10;;;23.50;69.80;;;;;;4974313;28;20027;-75
2022/09/02 12:36:35;;;;;;;2.55;1.17;;;23.60;70.50;;;;;;4980101;28;20039;-74
2022/09/02 12:39:26;;;;;;;3.85;1.30;;;23.60;70.50;;;;;;4973111;28;20030;-76
2022/09/02 12:41:54;;;;;;;4.68;1.25;;;23.60;69.60;;;;;;4967438;28;20039;-75
2022/09/02 12:44:40;;;;;;;1.20;1.10;;;23.70;70.90;;;;;;4961807;28;20031;-75
2022/09/02 12:47:18;;;;;;;9.93;1.25;;;23.70;71.00;;;;;;4973634;28;20074;-76
2022/09/02 12:50:06;;;;;;;3.50;1.25;;;23.70;70.10;;;;;;4973448;28;20118;-74
2022/09/02 12:52:34;;;;;;;3.40;1.20;;;23.80;68.50;;;;;;4972244;28;20034;-75
2022/09/02 12:55:20;;;;;;;7.53;1.17;;;23.80;69.30;;;;;;4973518;28;20023;-72
2022/09/02 12:57:51;;;;;;;2.78;1.48;;;23.80;69.60;;;;;;4970895;28;20069;-75
2022/09/02 13:00:45;;;;;;;3.80;1.20;;;23.90;70.40;;;;;;4978980;28;20038;-74
2022/09/02 13:03:26;;;;;;;2.35;1.13;;;23.90;69.20;;;;;;4983724;28;20418;-74
2022/09/02 13:06:00;;;;;;;5.15;1.45;;;23.90;69.60;;;;;;4985340;28;20092;-75
2022/09/02 13:08:53;;;;;;;2.00;1.17;;;24.00;69.40;;;;;;4974653;28;20023;-73
2022/09/02 13:11:31;;;;;;;2.33;1.00;;;24.00;69.60;;;;;;4975476;28;20117;-72
2022/09/02 13:14:21;;;;;;;2.40;0.80;;;24.00;70.30;;;;;;4970885;28;20031;-72
2022/09/02 13:17:08;;;;;;;6.10;1.20;;;24.00;71.10;;;;;;4963232;28;20105;-73